createdAt,value
2023-03-06T00:00:51.461Z,95705.00
2023-03-06T00:03:19.875Z,95691.41
2023-03-06T00:05:48.310Z,95691.81
2023-03-06T00:08:16.307Z,95699.47
2023-03-06T00:10:44.558Z,95699.09
2023-03-06T00:13:16.542Z,95693.84
2023-03-06T00:15:46.437Z,95693.03
2023-03-06T00:18:14.812Z,95684.31
2023-03-06T00:20:43.907Z,95682.09
2023-03-06T00:23:12.835Z,95687.41
2023-03-06T00:25:44.023Z,95686.16
2023-03-06T00:28:12.408Z,95682.09
2023-03-06T00:30:40.342Z,95670.56
2023-03-06T00:33:09.433Z,95668.72
2023-03-06T00:35:39.396Z,95672.38
2023-03-06T00:38:07.251Z,95664.25
2023-03-06T00:40:35.214Z,95665.44
2023-03-06T00:43:02.987Z,95664.03
2023-03-06T00:45:30.798Z,95665.47
2023-03-06T00:47:58.871Z,95658.19
2023-03-06T00:50:28.594Z,95649.25
2023-03-06T00:52:56.801Z,95657.53
2023-03-06T00:55:24.547Z,95638.88
2023-03-06T00:57:52.240Z,95649.28
2023-03-06T01:00:21.031Z,95646.66
2023-03-06T01:02:48.864Z,95648.69
2023-03-06T01:05:16.731Z,95640.53
2023-03-06T01:07:45.993Z,95634.06
2023-03-06T01:10:13.781Z,95625.34
2023-03-06T01:12:41.644Z,95625.34
2023-03-06T01:15:10.505Z,95624.75
2023-03-06T01:17:38.272Z,95613.41
2023-03-06T01:20:07.149Z,95598.16
2023-03-06T01:22:35.026Z,95597.53
2023-03-06T01:25:04.486Z,95600.78
2023-03-06T01:27:32.287Z,95584.34
2023-03-06T01:29:59.986Z,95584.78
2023-03-06T01:32:27.832Z,95578.28
2023-03-06T01:34:55.698Z,95582.13
2023-03-06T01:37:23.514Z,95582.75
2023-03-06T01:39:51.346Z,95574.00
2023-03-06T01:42:20.546Z,95579.03
2023-03-06T01:44:59.851Z,95574.19
2023-03-06T01:47:28.116Z,95566.25
2023-03-06T01:49:57.744Z,95564.25
2023-03-06T01:52:30.288Z,95556.75
2023-03-06T01:55:01.666Z,95558.38
2023-03-06T01:57:33.671Z,95563.63
2023-03-06T02:00:03.854Z,95560.19
2023-03-06T02:02:31.774Z,95555.50
2023-03-06T02:05:00.721Z,95537.69
2023-03-06T02:07:29.694Z,95539.63
2023-03-06T02:09:57.644Z,95543.66
2023-03-06T02:12:26.217Z,95547.06
2023-03-06T02:14:55.504Z,95543.25
2023-03-06T02:17:24.577Z,95532.25
2023-03-06T02:19:59.526Z,95542.75
2023-03-06T02:22:35.776Z,95527.44
2023-03-06T02:25:09.284Z,95535.41
2023-03-06T02:27:38.599Z,95522.81
2023-03-06T02:30:09.421Z,95530.91
2023-03-06T02:32:37.267Z,95522.41
2023-03-06T02:35:07.144Z,95521.63
2023-03-06T02:37:34.910Z,95520.88
2023-03-06T02:40:09.298Z,95513.59
2023-03-06T02:42:38.481Z,95507.69
2023-03-06T02:45:12.177Z,95504.59
2023-03-06T02:47:39.886Z,95497.84
2023-03-06T02:50:08.118Z,95509.47
2023-03-06T02:52:35.921Z,95503.63
2023-03-06T02:55:04.528Z,95501.34
2023-03-06T02:57:32.777Z,95498.50
2023-03-06T03:00:01.861Z,95505.06
2023-03-06T03:02:29.635Z,95507.28
2023-03-06T03:04:57.464Z,95507.03
2023-03-06T03:07:25.219Z,95505.72
2023-03-06T03:09:52.993Z,95492.94
2023-03-06T03:12:22.312Z,95503.09
2023-03-06T03:14:50.516Z,95496.66
2023-03-06T03:17:19.641Z,95483.31
2023-03-06T03:19:47.775Z,95487.63
2023-03-06T03:22:15.559Z,95490.94
2023-03-06T03:24:43.841Z,95498.09
2023-03-06T03:27:12.209Z,95504.03
2023-03-06T03:29:40.130Z,95501.19
2023-03-06T03:32:08.312Z,95497.28
2023-03-06T03:34:37.477Z,95490.75
2023-03-06T03:37:05.313Z,95487.91
2023-03-06T03:39:33.442Z,95479.81
2023-03-06T03:42:01.234Z,95491.16
2023-03-06T03:44:28.968Z,95488.16
2023-03-06T03:46:56.652Z,95489.78
2023-03-06T03:49:24.394Z,95486.91
2023-03-06T03:51:53.730Z,95484.94
2023-03-06T03:54:21.780Z,95483.50
2023-03-06T03:56:49.666Z,95488.16
2023-03-06T03:59:17.472Z,95483.72
2023-03-06T04:01:45.932Z,95485.22
2023-03-06T04:04:13.977Z,95482.72
2023-03-06T04:06:41.720Z,95489.41
2023-03-06T04:09:11.331Z,95489.53
2023-03-06T04:11:39.187Z,95484.88
2023-03-06T04:14:08.274Z,95489.53
2023-03-06T04:16:36.300Z,95486.78
2023-03-06T04:19:04.226Z,95478.19
2023-03-06T04:21:32.001Z,95469.84
2023-03-06T04:23:59.744Z,95483.63
2023-03-06T04:26:29.007Z,95485.84
2023-03-06T04:28:56.809Z,95480.44
2023-03-06T04:31:24.598Z,95480.97
2023-03-06T04:33:52.705Z,95486.00
2023-03-06T04:36:27.924Z,95476.81
2023-03-06T04:38:55.817Z,95467.19
2023-03-06T04:41:23.869Z,95465.34
2023-03-06T04:43:53.502Z,95462.72
2023-03-06T04:46:21.295Z,95462.06
2023-03-06T04:48:49.094Z,95449.88
2023-03-06T04:51:16.994Z,95451.22
2023-03-06T04:53:44.858Z,95455.47
2023-03-06T04:56:12.697Z,95461.03
2023-03-06T04:58:40.863Z,95463.03
2023-03-06T05:01:10.081Z,95454.16
2023-03-06T05:03:37.991Z,95463.25
2023-03-06T05:06:06.400Z,95459.38
2023-03-06T05:08:34.157Z,95451.59
2023-03-06T05:11:03.457Z,95456.81
2023-03-06T05:13:31.449Z,95463.03
2023-03-06T05:16:03.723Z,95465.13
2023-03-06T05:18:33.334Z,95471.56
2023-03-06T05:21:01.145Z,95461.66
2023-03-06T05:23:29.732Z,95466.22
2023-03-06T05:25:57.621Z,95470.91
2023-03-06T05:28:26.541Z,95461.59
2023-03-06T05:30:54.272Z,95462.22
2023-03-06T05:33:22.047Z,95451.53
2023-03-06T05:35:51.965Z,95455.63
2023-03-06T05:38:20.277Z,95457.88
2023-03-06T05:40:48.947Z,95459.28
2023-03-06T05:43:16.709Z,95464.97
2023-03-06T05:45:44.627Z,95474.66
2023-03-06T05:48:14.492Z,95479.25
2023-03-06T05:50:42.235Z,95489.22
2023-03-06T05:53:11.393Z,95478.81
2023-03-06T05:55:39.177Z,95481.25
2023-03-06T05:58:07.148Z,95475.25
2023-03-06T06:00:34.870Z,95480.34
2023-03-06T06:03:03.101Z,95480.78
2023-03-06T06:05:31.141Z,95480.44
2023-03-06T06:07:58.841Z,95495.81
2023-03-06T06:10:28.007Z,95489.75
2023-03-06T06:12:55.776Z,95492.38
2023-03-06T06:15:23.925Z,95495.84
2023-03-06T06:17:51.657Z,95487.97
2023-03-06T06:20:20.071Z,95487.31
2023-03-06T06:22:47.920Z,95501.31
2023-03-06T06:25:16.460Z,95504.31
2023-03-06T06:27:45.629Z,95501.50
2023-03-06T06:30:14.112Z,95497.47
2023-03-06T06:32:41.885Z,95500.53
2023-03-06T06:35:10.520Z,95508.44
2023-03-06T06:37:38.395Z,95504.00
2023-03-06T06:40:07.396Z,95508.47
2023-03-06T06:42:39.858Z,95521.44
2023-03-06T06:45:11.385Z,95519.66
2023-03-06T06:47:41.914Z,95524.13
2023-03-06T06:50:13.543Z,95514.59
2023-03-06T06:52:41.517Z,95512.59
2023-03-06T06:55:10.467Z,95513.00
2023-03-06T06:57:38.313Z,95526.75
2023-03-06T07:00:07.192Z,95520.69
2023-03-06T07:02:36.346Z,95524.34
2023-03-06T07:05:05.608Z,95523.53
2023-03-06T07:07:36.519Z,95526.97
2023-03-06T07:10:06.562Z,95507.72
2023-03-06T07:12:35.497Z,95519.41
2023-03-06T07:15:04.055Z,95522.69
2023-03-06T07:17:31.804Z,95515.75
2023-03-06T07:20:00.864Z,95515.75
2023-03-06T07:22:31.939Z,95510.13
2023-03-06T07:25:04.164Z,95517.38
2023-03-06T07:27:32.107Z,95523.84
2023-03-06T07:29:59.863Z,95519.59
2023-03-06T07:32:27.808Z,95518.97
2023-03-06T07:35:09.093Z,95520.53
2023-03-06T07:37:44.661Z,95525.22
2023-03-06T07:40:13.588Z,95513.22
2023-03-06T07:42:41.338Z,95517.28
2023-03-06T07:45:10.160Z,95510.31
2023-03-06T07:47:37.910Z,95520.88
2023-03-06T07:50:07.348Z,95510.91
2023-03-06T07:52:35.598Z,95516.53
2023-03-06T07:55:05.553Z,95526.53
2023-03-06T07:57:33.323Z,95529.78
2023-03-06T08:00:01.107Z,95530.22
2023-03-06T08:02:28.867Z,95530.22
2023-03-06T08:04:57.230Z,95528.25
2023-03-06T08:07:25.370Z,95533.88
2023-03-06T08:09:53.156Z,95533.22
2023-03-06T08:12:22.410Z,95533.44
2023-03-06T08:14:50.132Z,95543.16
2023-03-06T08:17:17.968Z,95541.91
2023-03-06T08:19:45.734Z,95539.00
2023-03-06T08:22:14.040Z,95547.03
2023-03-06T08:24:42.509Z,95540.13
2023-03-06T08:27:10.319Z,95547.38
2023-03-06T08:29:39.878Z,95546.56
2023-03-06T08:32:11.539Z,95546.41
2023-03-06T08:34:40.167Z,95561.91
2023-03-06T08:37:08.380Z,95559.25
2023-03-06T08:39:36.483Z,95561.91
2023-03-06T08:42:04.575Z,95564.03
2023-03-06T08:44:32.464Z,95556.44
2023-03-06T08:47:02.153Z,95559.63
2023-03-06T08:49:29.907Z,95564.91
2023-03-06T08:51:57.726Z,95554.63
2023-03-06T08:54:25.506Z,95562.72
2023-03-06T08:56:53.892Z,95545.78
2023-03-06T08:59:21.649Z,95556.00
2023-03-06T09:01:49.531Z,95559.41
2023-03-06T09:04:18.888Z,95561.09
2023-03-06T09:06:46.928Z,95562.59
2023-03-06T09:09:15.077Z,95559.91
2023-03-06T09:11:42.885Z,95543.47
2023-03-06T09:14:10.619Z,95561.59
2023-03-06T09:16:38.827Z,95567.16
2023-03-06T09:19:07.101Z,95573.84
2023-03-06T09:21:36.199Z,95568.41
2023-03-06T09:24:03.982Z,95566.47
2023-03-06T09:26:45.008Z,95561.69
2023-03-06T09:29:15.877Z,95575.59
2023-03-06T09:31:43.659Z,95565.69
2023-03-06T09:34:11.519Z,95561.25
2023-03-06T09:36:55.579Z,95569.25
2023-03-06T09:39:25.421Z,95571.22
2023-03-06T09:41:53.638Z,95570.69
2023-03-06T09:44:23.899Z,95560.50
2023-03-06T09:47:10.112Z,95563.84
2023-03-06T09:49:52.850Z,95558.00
2023-03-06T09:52:32.571Z,95552.09
2023-03-06T09:55:10.236Z,95564.47
2023-03-06T09:57:42.274Z,95557.00
2023-03-06T10:00:14.647Z,95555.94
2023-03-06T10:02:47.016Z,95556.44
2023-03-06T10:05:22.697Z,95553.91
2023-03-06T10:07:58.093Z,95548.25
2023-03-06T10:10:28.445Z,95551.66
2023-03-06T10:13:03.322Z,95541.06
2023-03-06T10:15:34.345Z,95538.53
2023-03-06T10:18:03.035Z,95539.97
2023-03-06T10:20:37.828Z,95543.44
2023-03-06T10:23:27.364Z,95549.94
2023-03-06T10:26:01.152Z,95543.13
2023-03-06T10:28:36.667Z,95541.53
2023-03-06T10:31:10.503Z,95530.72
2023-03-06T10:33:51.875Z,95544.84
2023-03-06T10:36:22.178Z,95537.97
2023-03-06T10:38:51.357Z,95541.53
2023-03-06T10:41:26.094Z,95552.97
2023-03-06T10:44:20.633Z,95537.94
2023-03-06T10:46:50.078Z,95541.59
2023-03-06T10:49:27.518Z,95530.34
2023-03-06T10:52:01.604Z,95532.34
2023-03-06T10:54:32.359Z,95530.91
2023-03-06T10:57:19.314Z,95534.91
2023-03-06T10:59:53.467Z,95529.72
2023-03-06T11:02:32.402Z,95539.31
2023-03-06T11:05:03.786Z,95536.78
2023-03-06T11:07:33.023Z,95540.72
2023-03-06T11:10:17.900Z,95533.72
2023-03-06T11:12:58.101Z,95529.22
2023-03-06T11:15:26.766Z,95536.56
2023-03-06T11:18:01.278Z,95535.38
2023-03-06T11:20:48.595Z,95529.88
2023-03-06T11:23:20.471Z,95530.78
2023-03-06T11:25:54.973Z,95516.09
2023-03-06T11:28:26.903Z,95512.03
2023-03-06T11:30:58.589Z,95524.00
2023-03-06T11:33:32.461Z,95519.94
2023-03-06T11:36:10.467Z,95514.31
2023-03-06T11:38:45.239Z,95507.63
2023-03-06T11:41:23.531Z,95507.84
2023-03-06T11:44:00.655Z,95505.97
2023-03-06T11:46:34.092Z,95498.78
2023-03-06T11:49:10.754Z,95503.91
2023-03-06T11:51:44.276Z,95495.69
2023-03-06T11:54:14.242Z,95494.56
2023-03-06T11:56:53.630Z,95489.97
2023-03-06T11:59:52.469Z,95491.22
2023-03-06T12:02:34.356Z,95486.31
2023-03-06T12:05:23.059Z,95490.84
2023-03-06T12:08:02.560Z,95489.88
2023-03-06T12:10:37.112Z,95480.88
2023-03-06T12:16:08.274Z,95481.91
2023-03-06T12:18:44.842Z,95477.31
2023-03-06T12:21:22.622Z,95480.06
2023-03-06T12:24:03.771Z,95478.41
2023-03-06T12:26:50.728Z,95466.81
2023-03-06T12:29:34.551Z,95468.16
2023-03-06T12:32:15.223Z,95472.56
2023-03-06T12:35:01.418Z,95471.75
2023-03-06T12:37:41.159Z,95464.78
2023-03-06T12:40:35.800Z,95470.66
2023-03-06T12:43:23.208Z,95456.59
2023-03-06T12:45:58.899Z,95464.03
2023-03-06T12:48:30.342Z,95452.13
2023-03-06T12:50:58.784Z,95467.75
2023-03-06T12:53:29.476Z,95465.22
2023-03-06T12:55:59.611Z,95461.28
2023-03-06T12:58:50.951Z,95454.50
2023-03-06T13:01:53.953Z,95453.13
2023-03-06T13:04:45.537Z,95454.38
2023-03-06T13:07:30.067Z,95455.31
2023-03-06T13:10:10.288Z,95456.94
2023-03-06T13:12:49.856Z,95449.91
2023-03-06T13:15:33.002Z,95436.50
2023-03-06T13:18:02.580Z,95453.38
2023-03-06T13:20:42.842Z,95448.94
2023-03-06T13:23:51.865Z,95438.75
2023-03-06T13:26:52.078Z,95446.47
2023-03-06T13:30:02.542Z,95443.31
2023-03-06T13:32:33.822Z,95435.44
2023-03-06T13:35:04.268Z,95438.50
2023-03-06T13:38:00.129Z,95439.75
2023-03-06T13:40:35.138Z,95437.66
2023-03-06T13:43:18.522Z,95419.97
2023-03-06T13:45:48.259Z,95436.88
2023-03-06T13:48:44.397Z,95438.53
2023-03-06T13:51:26.461Z,95438.69
2023-03-06T13:54:21.241Z,95428.94
2023-03-06T13:57:27.742Z,95435.94
2023-03-06T14:00:26.936Z,95427.47
2023-03-06T14:03:29.328Z,95426.50
2023-03-06T14:05:58.899Z,95414.75
2023-03-06T14:08:31.390Z,95417.81
2023-03-06T14:11:04.800Z,95422.63
2023-03-06T14:13:45.428Z,95422.72
2023-03-06T14:16:19.095Z,95418.72
2023-03-06T14:18:48.822Z,95407.91
2023-03-06T14:21:27.062Z,95422.81
2023-03-06T14:24:01.076Z,95415.31
2023-03-06T14:26:32.864Z,95420.31
2023-03-06T14:29:01.989Z,95415.53
2023-03-06T14:31:32.707Z,95414.84
2023-03-06T14:34:02.474Z,95395.22
2023-03-06T14:36:35.532Z,95419.72
2023-03-06T14:39:12.238Z,95415.31
2023-03-06T14:41:40.603Z,95417.16
2023-03-06T14:44:10.372Z,95417.63
2023-03-06T14:46:38.215Z,95418.41
2023-03-06T14:49:08.198Z,95417.19
2023-03-06T14:51:41.777Z,95418.09
2023-03-06T14:54:16.873Z,95415.09
2023-03-06T14:56:48.381Z,95422.38
2023-03-06T14:59:21.759Z,95413.94
2023-03-06T15:01:52.459Z,95416.84
2023-03-06T15:04:27.633Z,95421.13
2023-03-06T15:06:57.467Z,95420.78
2023-03-06T15:09:30.205Z,95424.44
2023-03-06T15:12:00.206Z,95424.59
2023-03-06T15:14:33.080Z,95415.72
2023-03-06T15:17:21.615Z,95418.81
2023-03-06T15:19:51.882Z,95409.34
2023-03-06T15:22:27.853Z,95414.09
2023-03-06T15:25:18.723Z,95422.63
2023-03-06T15:27:50.789Z,95415.25
2023-03-06T15:30:33.420Z,95417.66
2023-03-06T15:33:24.944Z,95405.31
2023-03-06T15:35:57.212Z,95418.13
2023-03-06T15:38:30.800Z,95404.72
2023-03-06T15:41:02.388Z,95406.69
2023-03-06T15:43:35.086Z,95396.19
2023-03-06T15:46:03.216Z,95399.53
2023-03-06T15:48:30.923Z,95400.13
2023-03-06T15:50:59.202Z,95400.34
2023-03-06T15:53:27.027Z,95396.91
2023-03-06T15:55:55.185Z,95396.72
2023-03-06T15:58:26.828Z,95401.19
2023-03-06T16:00:54.645Z,95395.22
2023-03-06T16:03:22.453Z,95391.81
2023-03-06T16:05:50.198Z,95395.31
2023-03-06T16:08:17.918Z,95398.09
2023-03-06T16:10:46.790Z,95398.44
2023-03-06T16:13:17.662Z,95390.78
2023-03-06T16:15:49.981Z,95398.72
2023-03-06T16:18:18.669Z,95397.69
2023-03-06T16:20:47.090Z,95399.66
2023-03-06T16:23:16.018Z,95395.06
2023-03-06T16:25:48.761Z,95400.50
2023-03-06T16:28:17.556Z,95397.75
2023-03-06T16:30:47.210Z,95386.75
2023-03-06T16:33:15.203Z,95393.94
2023-03-06T16:35:44.478Z,95401.28
2023-03-06T16:38:12.409Z,95395.97
2023-03-06T16:40:41.401Z,95396.81
2023-03-06T16:43:10.619Z,95404.84
2023-03-06T16:45:40.225Z,95397.97
2023-03-06T16:48:14.986Z,95401.53
2023-03-06T16:50:43.158Z,95401.41
2023-03-06T16:53:11.019Z,95391.69
2023-03-06T16:55:38.827Z,95405.53
2023-03-06T16:58:06.706Z,95397.72
2023-03-06T17:00:34.515Z,95405.06
2023-03-06T17:03:03.159Z,95401.50
2023-03-06T17:05:34.327Z,95406.72
2023-03-06T17:08:02.420Z,95402.66
2023-03-06T17:10:30.231Z,95408.63
2023-03-06T17:12:58.483Z,95421.56
2023-03-06T17:15:26.289Z,95411.09
2023-03-06T17:17:54.105Z,95418.09
2023-03-06T17:20:23.849Z,95427.00
2023-03-06T17:22:53.068Z,95432.31
2023-03-06T17:25:21.244Z,95431.72
2023-03-06T17:27:49.187Z,95431.13
2023-03-06T17:30:17.056Z,95440.13
2023-03-06T17:32:44.804Z,95440.28
2023-03-06T17:35:12.535Z,95434.75
2023-03-06T17:37:40.774Z,95456.31
2023-03-06T17:40:12.103Z,95450.25
2023-03-06T17:42:39.961Z,95452.56
2023-03-06T17:45:11.129Z,95449.00
2023-03-06T17:47:39.030Z,95451.44
2023-03-06T17:50:07.251Z,95451.25
2023-03-06T17:52:34.975Z,95452.69
2023-03-06T17:55:02.793Z,95461.69
2023-03-06T17:57:32.068Z,95463.66
2023-03-06T17:59:59.895Z,95468.78
2023-03-06T18:02:27.628Z,95473.88
2023-03-06T18:04:58.060Z,95474.34
2023-03-06T18:07:26.628Z,95473.75
2023-03-06T18:09:54.469Z,95476.34
2023-03-06T18:12:22.378Z,95476.84
2023-03-06T18:14:51.757Z,95468.16
2023-03-06T18:17:19.497Z,95470.81
2023-03-06T18:19:47.809Z,95472.75
2023-03-06T18:22:15.520Z,95472.97
2023-03-06T18:24:43.413Z,95462.00
2023-03-06T18:27:11.241Z,95465.19
2023-03-06T18:29:38.968Z,95470.63
2023-03-06T18:32:10.591Z,95480.19
2023-03-06T18:34:38.418Z,95478.72
2023-03-06T18:37:06.274Z,95480.84
2023-03-06T18:39:33.965Z,95488.66
2023-03-06T18:42:01.788Z,95489.53
2023-03-06T18:44:29.605Z,95488.28
2023-03-06T18:46:57.489Z,95501.59
2023-03-06T18:49:26.768Z,95490.53
2023-03-06T18:51:54.527Z,95504.22
2023-03-06T18:54:22.360Z,95504.97
2023-03-06T18:56:50.109Z,95500.56
2023-03-06T18:59:18.979Z,95494.00
2023-03-06T19:01:47.540Z,95494.44
2023-03-06T19:04:15.935Z,95497.91
2023-03-06T19:06:45.030Z,95496.34
2023-03-06T19:09:12.821Z,95507.47
2023-03-06T19:11:41.006Z,95495.19
2023-03-06T19:14:08.695Z,95500.28
2023-03-06T19:16:36.568Z,95501.94
2023-03-06T19:19:04.315Z,95507.47
2023-03-06T19:21:32.060Z,95507.03
2023-03-06T19:24:03.247Z,95503.94
2023-03-06T19:26:31.199Z,95506.66
2023-03-06T19:28:58.979Z,95497.91
2023-03-06T19:31:28.779Z,95504.59
2023-03-06T19:33:57.749Z,95511.72
2023-03-06T19:36:28.811Z,95511.97
2023-03-06T19:38:57.918Z,95512.59
2023-03-06T19:41:27.885Z,95496.50
2023-03-06T19:43:58.328Z,95507.81
2023-03-06T19:46:27.253Z,95508.19
2023-03-06T19:48:56.171Z,95506.41
2023-03-06T19:51:24.160Z,95508.78
2023-03-06T19:53:52.031Z,95501.84
2023-03-06T19:56:21.609Z,95490.00
2023-03-06T19:58:50.718Z,95515.41
2023-03-06T20:01:20.579Z,95510.31
2023-03-06T20:03:50.522Z,95499.22
2023-03-06T20:06:19.977Z,95500.97
2023-03-06T20:08:48.547Z,95511.66
2023-03-06T20:11:18.107Z,95507.09
2023-03-06T20:13:47.826Z,95492.50
2023-03-06T20:16:18.070Z,95496.28
2023-03-06T20:18:46.624Z,95503.78
2023-03-06T20:21:15.647Z,95506.41
2023-03-06T20:23:43.952Z,95504.28
2023-03-06T20:26:14.290Z,95498.84
2023-03-06T20:28:43.024Z,95494.94
2023-03-06T20:31:13.624Z,95501.56
2023-03-06T20:33:43.168Z,95495.41
2023-03-06T20:36:13.347Z,95501.19
2023-03-06T20:38:41.297Z,95502.81
2023-03-06T20:41:15.357Z,95508.47
2023-03-06T20:43:43.283Z,95500.38
2023-03-06T20:46:12.506Z,95506.03
2023-03-06T20:48:42.741Z,95503.63
2023-03-06T20:51:17.406Z,95505.22
2023-03-06T20:53:45.350Z,95502.88
2023-03-06T20:56:13.750Z,95505.69
2023-03-06T20:58:41.794Z,95500.69
2023-03-06T21:01:09.599Z,95497.53
2023-03-06T21:03:37.389Z,95507.28
2023-03-06T21:06:07.074Z,95502.72
2023-03-06T21:08:34.845Z,95498.69
2023-03-06T21:11:02.624Z,95496.28
2023-03-06T21:13:30.382Z,95489.84
2023-03-06T21:15:58.233Z,95493.53
2023-03-06T21:18:26.302Z,95495.59
2023-03-06T21:20:54.058Z,95490.72
2023-03-06T21:23:23.224Z,95489.84
2023-03-06T21:25:53.280Z,95482.41
2023-03-06T21:28:21.261Z,95483.06
2023-03-06T21:30:49.064Z,95477.41
2023-03-06T21:33:16.951Z,95481.53
2023-03-06T21:35:45.936Z,95476.97
2023-03-06T21:38:15.471Z,95474.84
2023-03-06T21:40:45.784Z,95469.13
2023-03-06T21:43:15.727Z,95479.72
2023-03-06T21:45:44.942Z,95460.03
2023-03-06T21:48:13.322Z,95476.66
2023-03-06T21:50:41.598Z,95467.53
2023-03-06T21:53:09.920Z,95469.63
2023-03-06T21:55:40.399Z,95464.50
2023-03-06T21:58:09.906Z,95459.75
2023-03-06T22:00:38.068Z,95471.50
2023-03-06T22:03:06.611Z,95461.38
2023-03-06T22:05:34.673Z,95450.72
2023-03-06T22:08:02.435Z,95461.34
2023-03-06T22:10:30.181Z,95459.38
2023-03-06T22:12:57.965Z,95456.59
2023-03-06T22:15:27.091Z,95457.41
2023-03-06T22:17:54.839Z,95459.81
2023-03-06T22:20:22.668Z,95380.03
2023-03-06T22:22:50.638Z,95454.81
2023-03-06T22:25:18.528Z,95456.63
2023-03-06T22:27:46.342Z,95459.06
2023-03-06T22:30:14.415Z,95449.31
2023-03-06T22:32:43.567Z,95452.03
2023-03-06T22:35:11.739Z,95453.69
2023-03-06T22:37:39.606Z,95450.34
2023-03-06T22:40:08.350Z,95444.19
2023-03-06T22:42:36.102Z,95453.34
2023-03-06T22:45:03.883Z,95450.75
2023-03-06T22:47:31.652Z,95456.47
2023-03-06T22:50:00.764Z,95455.91
2023-03-06T22:52:28.503Z,95453.13
2023-03-06T22:54:56.270Z,95447.91
2023-03-06T22:57:24.091Z,95454.81
2023-03-06T22:59:51.811Z,95453.97
2023-03-06T23:02:20.046Z,95455.66
2023-03-06T23:04:52.252Z,95448.97
2023-03-06T23:07:22.296Z,95445.69
2023-03-06T23:09:50.153Z,95453.25
2023-03-06T23:12:17.926Z,95443.38
2023-03-06T23:14:49.510Z,95445.13
2023-03-06T23:17:17.337Z,95435.59
2023-03-06T23:19:45.212Z,95439.91
2023-03-06T23:22:14.362Z,95444.56
2023-03-06T23:24:43.879Z,95444.03
2023-03-06T23:27:11.760Z,95443.72
2023-03-06T23:29:39.651Z,95438.72
2023-03-06T23:32:08.224Z,95438.09
2023-03-06T23:34:36.320Z,95438.47
2023-03-06T23:37:04.420Z,95444.00
2023-03-06T23:39:33.594Z,95439.75
2023-03-06T23:42:02.791Z,95437.50
2023-03-06T23:44:30.841Z,95433.84
2023-03-06T23:46:58.623Z,95438.09
2023-03-06T23:49:26.381Z,95430.34
2023-03-06T23:51:54.271Z,95437.25
2023-03-06T23:54:22.133Z,95437.00
2023-03-06T23:56:49.984Z,95424.28
2023-03-06T23:59:19.060Z,95431.97
